Terminal Aerodrome Forecast
Issued by NWS

Current Version | Previous Version | Graphics & Text | Print | Product List | Glossary On
Versions: 1 2 3 4 5 6 7 8 9 10 11 12 13 14 15 16 17 18 19 20
000
FTUS41 KILN 182200 AAA
TAFLCK
TAF AMD
KLCK 182204Z 1822/1918 32011KT P6SM -SHRA OVC035
     FM190000 32011KT P6SM BKN020
     FM190200 33010KT P6SM OVC015
     FM191100 31004KT P6SM SCT025
     FM191500 28005KT P6SM FEW040=

USA.gov is the U.S. government's official web portal to all federal, state and local government web resources and services.